Time;durP1;ratioP1;P1;durP2;ratioP2;P2;SDS_P1;SDS_P2;PMS_P1;PMS_P2;Temp;Humidity;BMP_temperature;BMP_pressure;BME280_temperature;BME280_humidity;BME280_pressure;Samples;Min_cycle;Max_cycle;Signal;HPM_P1;HPM_P2
2023/05/25 00:00:12;;;;;;;8.95;3.20;;;9.60;99.90;;;;;;5065177;28;20554;-79
2023/05/25 00:02:38;;;;;;;7.30;2.95;;;9.60;99.90;;;;;;5015653;28;20515;-79
2023/05/25 00:05:05;;;;;;;7.20;3.03;;;9.70;99.90;;;;;;5065092;28;20052;-79
2023/05/25 00:07:30;;;;;;;5.95;2.75;;;9.70;99.90;;;;;;5048460;28;20048;-79
2023/05/25 00:09:56;;;;;;;9.07;2.95;;;9.70;99.90;;;;;;5031410;28;20093;-79
2023/05/25 00:12:22;;;;;;;9.13;2.88;;;9.70;99.90;;;;;;5065185;28;20044;-79
2023/05/25 00:14:48;;;;;;;8.65;2.90;;;9.70;99.90;;;;;;5048423;28;20048;-79
2023/05/25 00:17:14;;;;;;;4.57;2.60;;;9.90;99.90;;;;;;5064898;28;20109;-80
2023/05/25 00:19:42;;;;;;;12.25;2.90;;;9.60;99.90;;;;;;5064792;28;20518;-79
2023/05/25 00:22:09;;;;;;;8.68;3.38;;;9.50;99.90;;;;;;5064610;28;20479;-79
2023/05/25 00:24:35;;;;;;;8.48;3.60;;;9.50;99.90;;;;;;5047664;28;20125;-79
2023/05/25 00:27:01;;;;;;;8.80;3.33;;;9.50;99.90;;;;;;5064850;28;20052;-79
2023/05/25 00:29:28;;;;;;;8.63;2.70;;;9.40;99.90;;;;;;5031885;28;20048;-79
2023/05/25 00:31:54;;;;;;;13.57;3.30;;;9.40;99.90;;;;;;5064722;28;20040;-80
2023/05/25 00:34:20;;;;;;;10.13;3.38;;;9.30;99.90;;;;;;5064693;28;20101;-79
2023/05/25 00:36:47;;;;;;;9.10;3.28;;;9.30;99.90;;;;;;5065181;28;20044;-79
2023/05/25 00:39:14;;;;;;;10.38;4.00;;;9.30;99.90;;;;;;5064514;28;20078;-79
2023/05/25 00:41:44;;;;;;;5.57;2.55;;;9.30;99.90;;;;;;5031502;28;20044;-79
2023/05/25 00:44:13;;;;;;;10.02;3.33;;;9.20;99.90;;;;;;5047365;28;20084;-79
2023/05/25 00:46:46;;;;;;;10.80;3.20;;;9.20;99.90;;;;;;5048131;28;20044;-79
2023/05/25 00:49:14;;;;;;;7.35;2.60;;;9.20;99.90;;;;;;5047352;28;20143;-79
2023/05/25 00:51:40;;;;;;;8.40;3.25;;;9.10;99.90;;;;;;5047490;28;20040;-79
2023/05/25 00:54:06;;;;;;;6.75;3.50;;;9.10;99.90;;;;;;5064280;28;20048;-79
2023/05/25 00:56:37;;;;;;;8.77;3.72;;;9.10;99.90;;;;;;5047219;28;20418;-79
2023/05/25 00:59:06;;;;;;;9.35;2.97;;;9.10;99.90;;;;;;5064401;28;20051;-79
2023/05/25 01:01:38;;;;;;;9.25;3.03;;;9.10;99.90;;;;;;5063807;28;20097;-79
2023/05/25 01:04:08;;;;;;;6.13;3.35;;;9.60;99.90;;;;;;5064437;28;20101;-79
2023/05/25 01:06:37;;;;;;;6.10;3.20;;;9.20;99.90;;;;;;5047321;28;20602;-79
2023/05/25 01:09:04;;;;;;;9.57;3.38;;;9.00;99.90;;;;;;5064005;28;20452;-79
2023/05/25 01:11:40;;;;;;;7.32;3.17;;;8.90;99.90;;;;;;5063530;28;20109;-79
2023/05/25 01:14:06;;;;;;;7.57;2.60;;;9.50;99.90;;;;;;5046805;28;20075;-79
2023/05/25 01:16:33;;;;;;;5.85;3.03;;;8.90;99.90;;;;;;5063985;28;20427;-79
2023/05/25 01:18:58;;;;;;;8.73;3.40;;;9.00;99.90;;;;;;5064119;28;20052;-79
2023/05/25 01:21:41;;;;;;;6.97;2.78;;;8.90;99.90;;;;;;5063589;28;20479;-79
2023/05/25 01:24:26;;;;;;;11.20;4.13;;;8.80;99.90;;;;;;5046848;28;20123;-79
2023/05/25 01:27:06;;;;;;;7.57;2.83;;;8.70;99.90;;;;;;5063364;28;20129;-79
2023/05/25 01:29:34;;;;;;;4.65;2.42;;;8.70;99.90;;;;;;5063488;28;20048;-79
2023/05/25 01:32:02;;;;;;;4.97;3.08;;;8.80;99.90;;;;;;5046806;28;20492;-79
2023/05/25 01:34:30;;;;;;;10.88;3.80;;;8.70;99.90;;;;;;5062971;28;20048;-79
2023/05/25 01:36:56;;;;;;;9.63;3.15;;;8.80;99.90;;;;;;5063266;28;20044;-79
2023/05/25 01:39:22;;;;;;;9.45;3.85;;;8.80;99.90;;;;;;5046610;28;20438;-79
2023/05/25 01:41:48;;;;;;;10.70;3.00;;;8.80;99.90;;;;;;5063183;28;20213;-79
2023/05/25 01:44:14;;;;;;;9.07;2.95;;;9.30;99.90;;;;;;5046530;28;20225;-79
2023/05/25 01:46:40;;;;;;;4.28;2.55;;;8.80;99.90;;;;;;5063412;28;20080;-79
2023/05/25 01:49:31;;;;;;;9.20;2.88;;;9.00;99.90;;;;;;5048964;28;20049;-79
2023/05/25 01:52:21;;;;;;;6.43;2.33;;;8.80;99.90;;;;;;5066433;28;20044;-79
2023/05/25 01:54:52;;;;;;;8.18;2.75;;;8.80;99.90;;;;;;5049731;28;20044;-79
2023/05/25 01:57:19;;;;;;;5.32;2.08;;;8.90;99.90;;;;;;5066770;28;20040;-78
2023/05/25 01:59:47;;;;;;;6.75;2.83;;;9.90;99.90;;;;;;5034320;28;20379;-79
2023/05/25 02:02:17;;;;;;;7.93;2.30;;;8.70;99.90;;;;;;5049619;28;20127;-79
2023/05/25 02:04:44;;;;;;;9.52;2.95;;;8.70;99.90;;;;;;5049827;28;20135;-79
2023/05/25 02:07:10;;;;;;;6.03;2.65;;;8.60;99.90;;;;;;5049416;28;20044;-79
2023/05/25 02:09:36;;;;;;;9.38;3.42;;;8.60;99.90;;;;;;5066324;28;20441;-79
2023/05/25 02:12:02;;;;;;;14.48;3.15;;;8.70;99.90;;;;;;5067131;28;20066;-79
2023/05/25 02:14:28;;;;;;;9.57;3.53;;;8.60;99.90;;;;;;5049948;28;20048;-79
2023/05/25 02:16:53;;;;;;;7.05;3.08;;;8.80;99.90;;;;;;5067117;28;20040;-79
2023/05/25 02:19:19;;;;;;;9.32;4.15;;;8.50;99.90;;;;;;5049905;28;20075;-79
2023/05/25 02:21:45;;;;;;;7.97;4.20;;;8.50;99.90;;;;;;5050292;28;20048;-79
2023/05/25 02:24:10;;;;;;;10.23;3.20;;;9.00;99.90;;;;;;5049694;28;20091;-79
2023/05/25 02:26:37;;;;;;;8.65;3.97;;;9.10;99.90;;;;;;5066764;28;20510;-79
2023/05/25 02:29:04;;;;;;;5.88;3.03;;;8.50;99.90;;;;;;5066301;28;20130;-79
2023/05/25 02:31:30;;;;;;;11.77;3.42;;;9.80;99.90;;;;;;5066413;28;20051;-78
2023/05/25 02:33:56;;;;;;;10.75;3.95;;;7.50;99.90;;;;;;5050023;28;20052;-78
2023/05/25 02:36:22;;;;;;;10.20;3.38;;;8.40;99.90;;;;;;5066672;28;20036;-78
2023/05/25 02:38:50;;;;;;;7.72;3.10;;;8.40;99.90;;;;;;5049746;28;20044;-78
2023/05/25 02:41:19;;;;;;;12.48;3.53;;;9.20;99.90;;;;;;5066555;28;20044;-78
2023/05/25 02:43:44;;;;;;;7.15;3.38;;;9.30;99.90;;;;;;5066246;28;20044;-79
2023/05/25 02:46:10;;;;;;;17.00;3.78;;;8.40;99.90;;;;;;5066028;28;20322;-77
2023/05/25 02:48:36;;;;;;;8.77;3.10;;;8.50;99.90;;;;;;5069982;28;20051;-77
2023/05/25 02:51:02;;;;;;;12.68;3.50;;;8.30;99.90;;;;;;5069583;28;20411;-77
2023/05/25 02:53:28;;;;;;;11.07;3.42;;;8.30;99.90;;;;;;5053269;28;20044;-78
2023/05/25 02:55:55;;;;;;;7.93;3.40;;;8.90;99.90;;;;;;5052979;28;20044;-77
2023/05/25 02:58:21;;;;;;;9.90;3.55;;;8.20;99.90;;;;;;5053007;28;20059;-78
2023/05/25 03:00:49;;;;;;;17.85;4.60;;;9.50;99.90;;;;;;5053287;28;20109;-78
2023/05/25 03:03:15;;;;;;;7.95;3.72;;;9.10;99.90;;;;;;5069925;28;20043;-78
2023/05/25 03:05:40;;;;;;;10.88;3.75;;;8.10;99.90;;;;;;5019874;28;20385;-78
2023/05/25 03:08:06;;;;;;;10.30;3.78;;;8.10;99.90;;;;;;5069599;28;20151;-79
2023/05/25 03:10:32;;;;;;;12.38;3.55;;;8.10;99.90;;;;;;5070007;28;20048;-79
2023/05/25 03:12:57;;;;;;;9.63;4.00;;;8.10;99.90;;;;;;5069729;28;20389;-79
2023/05/25 03:15:23;;;;;;;13.60;3.97;;;8.20;99.90;;;;;;5069349;28;20048;-79
2023/05/25 03:17:49;;;;;;;14.00;3.95;;;8.20;99.90;;;;;;5053105;28;20090;-79
2023/05/25 03:20:15;;;;;;;8.98;3.58;;;7.00;99.90;;;;;;5069661;28;20422;-79
2023/05/25 03:22:42;;;;;;;16.60;4.32;;;8.20;99.90;;;;;;5069215;28;20048;-78
2023/05/25 03:25:11;;;;;;;12.13;4.72;;;9.20;99.90;;;;;;5052957;28;20041;-79
2023/05/25 03:27:37;;;;;;;9.27;3.80;;;8.30;99.90;;;;;;5069039;28;20069;-79
2023/05/25 03:30:03;;;;;;;8.82;3.67;;;8.30;99.90;;;;;;5052489;28;20044;-79
2023/05/25 03:32:29;;;;;;;9.45;4.10;;;8.30;99.90;;;;;;5052458;28;20059;-79
2023/05/25 03:34:55;;;;;;;11.45;3.83;;;8.90;99.90;;;;;;5069169;28;20051;-79
2023/05/25 03:37:21;;;;;;;8.15;3.60;;;8.30;99.90;;;;;;5035421;28;20426;-79
2023/05/25 03:39:46;;;;;;;8.57;3.40;;;9.10;99.90;;;;;;5052155;28;20158;-78
2023/05/25 03:42:12;;;;;;;6.53;3.40;;;8.40;99.90;;;;;;5052515;28;20052;-77
2023/05/25 03:44:38;;;;;;;7.78;3.42;;;8.40;99.90;;;;;;5052393;28;20036;-78
2023/05/25 03:47:04;;;;;;;9.68;4.32;;;8.40;99.90;;;;;;5052794;28;20125;-78
2023/05/25 03:49:31;;;;;;;8.02;3.22;;;8.40;99.90;;;;;;5051713;28;20452;-78
2023/05/25 03:51:59;;;;;;;9.55;3.83;;;8.70;99.90;;;;;;5052040;28;20048;-78
2023/05/25 03:54:24;;;;;;;8.70;3.15;;;8.60;99.90;;;;;;5052464;28;20134;-79
2023/05/25 03:56:50;;;;;;;10.70;4.03;;;8.40;99.90;;;;;;5035824;28;20076;-79
2023/05/25 03:59:17;;;;;;;8.90;3.45;;;8.00;99.90;;;;;;5051606;28;20489;-79
2023/05/25 04:01:43;;;;;;;7.30;3.45;;;8.60;99.90;;;;;;5052334;28;20040;-79
2023/05/25 04:04:09;;;;;;;15.20;4.18;;;8.50;99.90;;;;;;5068733;28;20040;-78
2023/05/25 04:06:36;;;;;;;10.32;4.22;;;8.50;99.90;;;;;;5068609;28;20040;-78
2023/05/25 04:09:03;;;;;;;12.10;3.72;;;8.60;99.90;;;;;;5068303;28;20047;-78
2023/05/25 04:11:29;;;;;;;13.27;4.15;;;8.60;99.90;;;;;;5068576;28;20055;-79
2023/05/25 04:13:55;;;;;;;6.72;3.67;;;8.70;99.90;;;;;;5068626;28;20419;-79
2023/05/25 04:16:21;;;;;;;9.95;4.32;;;9.30;99.90;;;;;;5051520;28;20376;-79
2023/05/25 04:18:46;;;;;;;12.45;3.88;;;9.70;99.90;;;;;;5068285;28;20040;-79
2023/05/25 04:21:12;;;;;;;7.97;3.55;;;8.80;99.90;;;;;;5068080;28;20967;-78
2023/05/25 04:23:38;;;;;;;6.13;3.63;;;8.90;99.90;;;;;;5035144;28;20040;-79
2023/05/25 04:26:04;;;;;;;7.38;3.10;;;9.60;99.90;;;;;;5068222;28;20143;-79
2023/05/25 04:28:31;;;;;;;10.20;3.72;;;9.00;99.90;;;;;;5052009;28;20047;-79
2023/05/25 04:30:57;;;;;;;7.57;3.75;;;9.00;99.90;;;;;;5068709;28;20040;-79
2023/05/25 04:33:23;;;;;;;10.60;4.40;;;9.90;99.90;;;;;;5051777;28;20126;-78
2023/05/25 04:35:49;;;;;;;7.90;4.40;;;9.00;99.90;;;;;;5067812;28;20052;-79
2023/05/25 04:38:19;;;;;;;10.55;4.10;;;9.20;99.90;;;;;;5051946;28;20054;-79
2023/05/25 04:40:45;;;;;;;14.75;4.60;;;9.30;99.90;;;;;;5035609;28;20132;-80
2023/05/25 04:43:12;;;;;;;11.20;4.57;;;9.40;99.90;;;;;;5052032;28;20430;-79
2023/05/25 04:45:38;;;;;;;10.60;4.22;;;9.30;99.90;;;;;;5068039;28;20047;-78
2023/05/25 04:48:04;;;;;;;10.27;4.07;;;9.60;99.90;;;;;;5067810;28;20565;-78
2023/05/25 04:50:29;;;;;;;6.63;4.38;;;9.60;99.90;;;;;;5067034;28;20580;-79
2023/05/25 04:52:55;;;;;;;15.48;5.63;;;9.70;99.90;;;;;;5051167;28;20267;-78
2023/05/25 04:55:21;;;;;;;11.80;4.63;;;9.80;99.90;;;;;;5067619;28;20165;-78
2023/05/25 04:57:47;;;;;;;8.45;4.50;;;9.90;99.90;;;;;;5067883;28;20376;-78
2023/05/25 05:00:14;;;;;;;9.00;5.03;;;10.50;99.90;;;;;;5050828;28;20040;-78
2023/05/25 05:02:40;;;;;;;14.05;5.22;;;10.00;99.90;;;;;;5085557;28;20480;-78
2023/05/25 05:05:06;;;;;;;12.55;4.70;;;10.20;99.90;;;;;;5051039;28;20415;-78
2023/05/25 05:07:32;;;;;;;14.73;5.03;;;10.30;99.90;;;;;;5066911;28;20506;-77
2023/05/25 05:09:58;;;;;;;10.95;5.45;;;10.40;99.90;;;;;;5033062;28;20036;-76
2023/05/25 05:12:23;;;;;;;10.32;4.50;;;10.50;99.90;;;;;;5085774;28;20154;-77
2023/05/25 05:14:49;;;;;;;10.25;4.53;;;11.00;99.90;;;;;;5066888;28;20070;-76
2023/05/25 05:17:16;;;;;;;10.30;4.30;;;10.90;99.90;;;;;;5067371;28;20121;-77
2023/05/25 05:19:42;;;;;;;8.57;3.85;;;11.10;99.90;;;;;;5050934;28;20499;-77
2023/05/25 05:22:08;;;;;;;13.48;4.07;;;11.30;99.90;;;;;;5066719;28;20115;-77
2023/05/25 05:24:34;;;;;;;12.45;4.57;;;11.50;99.90;;;;;;5066803;28;20054;-77
2023/05/25 05:27:00;;;;;;;7.63;3.83;;;12.30;99.90;;;;;;5066750;28;20052;-76
2023/05/25 05:29:27;;;;;;;10.15;4.40;;;11.80;99.90;;;;;;5066603;28;20047;-77
2023/05/25 05:31:54;;;;;;;15.32;5.80;;;11.90;99.90;;;;;;5018056;28;20040;-77
2023/05/25 05:34:20;;;;;;;12.10;3.75;;;12.00;99.90;;;;;;5050491;28;20044;-77
2023/05/25 05:36:46;;;;;;;9.15;3.60;;;12.20;99.90;;;;;;5050401;28;20139;-77
2023/05/25 05:39:12;;;;;;;9.68;4.50;;;12.20;99.90;;;;;;5033185;28;20441;-78
2023/05/25 05:41:42;;;;;;;10.13;3.17;;;12.30;99.90;;;;;;5066459;28;20055;-77
2023/05/25 05:44:08;;;;;;;12.57;3.58;;;12.40;99.90;;;;;;5067048;28;20048;-78
2023/05/25 05:46:33;;;;;;;11.02;3.63;;;12.50;99.90;;;;;;5066668;28;20375;-77
2023/05/25 05:48:59;;;;;;;7.22;2.92;;;12.50;99.90;;;;;;5050157;28;20052;-78
2023/05/25 05:51:26;;;;;;;7.50;2.75;;;12.60;99.90;;;;;;5066629;28;20074;-78
2023/05/25 05:53:51;;;;;;;9.82;2.65;;;12.60;99.90;;;;;;5067173;28;20048;-81
2023/05/25 05:56:17;;;;;;;7.95;2.30;;;12.70;99.90;;;;;;5050055;28;20074;-82
2023/05/25 05:58:44;;;;;;;7.20;1.85;;;12.80;99.90;;;;;;5033099;28;20036;-79
2023/05/25 06:01:09;;;;;;;7.95;2.45;;;12.80;99.90;;;;;;5049991;28;20048;-78
2023/05/25 06:03:36;;;;;;;6.55;2.15;;;12.90;99.90;;;;;;5067144;28;20086;-78
2023/05/25 06:06:03;;;;;;;6.63;1.70;;;12.90;99.90;;;;;;5066588;28;20093;-78
2023/05/25 06:08:28;;;;;;;14.40;2.20;;;12.90;99.90;;;;;;5049834;28;20047;-79
2023/05/25 06:10:54;;;;;;;10.23;2.30;;;13.00;99.90;;;;;;5017098;28;20040;-78
2023/05/25 06:13:20;;;;;;;5.63;1.13;;;13.00;99.90;;;;;;5066302;28;20051;-78
2023/05/25 06:15:46;;;;;;;8.75;1.75;;;13.00;99.90;;;;;;5066500;28;20130;-78
2023/05/25 06:18:12;;;;;;;7.95;1.20;;;13.10;99.90;;;;;;5067023;28;20447;-78
2023/05/25 06:20:37;;;;;;;10.55;2.20;;;13.10;99.90;;;;;;5066742;28;20036;-78
2023/05/25 06:23:03;;;;;;;15.75;2.40;;;13.10;99.90;;;;;;5071032;28;20040;-79
2023/05/25 06:25:29;;;;;;;10.98;2.00;;;13.20;99.90;;;;;;5037433;28;20476;-78
2023/05/25 06:27:55;;;;;;;8.63;1.80;;;13.30;99.90;;;;;;5054431;28;20044;-79
2023/05/25 06:30:21;;;;;;;11.57;2.97;;;13.40;99.90;;;;;;5037706;28;20052;-80
2023/05/25 06:32:47;;;;;;;14.98;2.83;;;13.50;99.90;;;;;;5021360;28;20114;-79
2023/05/25 06:35:18;;;;;;;11.95;2.10;;;13.60;99.90;;;;;;5038328;28;20051;-80
2023/05/25 06:37:45;;;;;;;12.10;2.08;;;13.70;99.90;;;;;;5023587;28;20048;-81
2023/05/25 06:40:11;;;;;;;10.98;2.30;;;13.90;99.90;;;;;;5055198;28;20384;-79
2023/05/25 06:42:37;;;;;;;7.97;2.25;;;14.00;99.90;;;;;;5071467;28;20140;-79
2023/05/25 06:45:04;;;;;;;11.85;3.10;;;14.10;99.90;;;;;;5054125;28;20519;-78
2023/05/25 06:47:29;;;;;;;9.38;2.13;;;14.30;99.90;;;;;;5070388;28;20123;-79
2023/05/25 06:49:55;;;;;;;10.68;2.38;;;14.30;99.90;;;;;;5036991;28;20143;-79
2023/05/25 06:52:21;;;;;;;11.18;1.88;;;14.50;99.90;;;;;;5053914;28;20044;-79
2023/05/25 06:54:46;;;;;;;17.83;3.72;;;13.90;99.90;;;;;;5069569;28;20043;-81
2023/05/25 06:57:12;;;;;;;8.13;2.22;;;14.20;99.90;;;;;;5036861;28;20044;-82
2023/05/25 06:59:38;;;;;;;9.88;1.90;;;14.10;99.90;;;;;;5053377;28;20116;-78
2023/05/25 07:02:04;;;;;;;13.40;2.20;;;14.00;99.90;;;;;;5070303;28;20044;-79
2023/05/25 07:04:30;;;;;;;15.05;2.63;;;13.90;99.90;;;;;;5070069;28;20559;-80
2023/05/25 07:06:55;;;;;;;14.50;2.75;;;14.00;99.90;;;;;;5052324;28;20044;-80
2023/05/25 07:09:21;;;;;;;13.23;2.63;;;14.20;99.90;;;;;;5053751;28;20044;-81
2023/05/25 07:11:47;;;;;;;14.88;2.22;;;14.30;99.90;;;;;;5020149;28;20127;-80
2023/05/25 07:14:12;;;;;;;10.23;3.15;;;14.40;99.90;;;;;;5053034;28;20604;-80
2023/05/25 07:16:38;;;;;;;10.77;2.60;;;14.40;99.90;;;;;;5069807;28;20061;-78
2023/05/25 07:19:04;;;;;;;14.88;2.42;;;14.30;99.90;;;;;;5053188;28;20461;-79
2023/05/25 07:21:32;;;;;;;12.10;2.20;;;14.30;99.90;;;;;;5069574;28;20122;-79
2023/05/25 07:23:59;;;;;;;16.30;2.95;;;14.30;99.90;;;;;;5069612;28;20051;-80
2023/05/25 07:26:26;;;;;;;13.00;2.25;;;14.20;99.90;;;;;;5054431;28;20076;-80
2023/05/25 07:28:52;;;;;;;14.95;2.60;;;14.20;99.90;;;;;;5052896;28;20446;-80
2023/05/25 07:31:18;;;;;;;12.68;2.30;;;14.30;99.90;;;;;;5070018;28;20055;-80
2023/05/25 07:33:44;;;;;;;13.43;2.45;;;14.20;99.90;;;;;;5051825;28;20047;-81
2023/05/25 07:36:10;;;;;;;21.25;2.63;;;14.20;99.90;;;;;;5037091;28;20052;-80
2023/05/25 07:38:36;;;;;;;16.23;2.88;;;14.90;99.90;;;;;;5052817;28;20503;-81
2023/05/25 07:41:01;;;;;;;17.08;3.05;;;14.20;99.90;;;;;;5036371;28;20035;-80
2023/05/25 07:43:27;;;;;;;23.90;3.88;;;14.20;99.90;;;;;;5069410;28;20094;-80
2023/05/25 07:45:53;;;;;;;13.98;2.60;;;14.20;99.90;;;;;;5052112;28;20048;-83
2023/05/25 07:48:19;;;;;;;13.50;2.20;;;14.20;99.90;;;;;;5052686;28;20046;-83
2023/05/25 07:50:45;;;;;;;16.63;3.08;;;14.10;99.90;;;;;;5035091;28;20052;-83
2023/05/25 07:53:11;;;;;;;14.18;2.95;;;14.10;99.90;;;;;;5052500;28;20554;-81
2023/05/25 07:55:37;;;;;;;13.15;2.83;;;14.20;99.90;;;;;;5035256;28;20046;-83
2023/05/25 07:58:03;;;;;;;11.77;3.30;;;14.20;99.90;;;;;;5035833;28;20046;-82
2023/05/25 08:00:28;;;;;;;15.13;2.75;;;14.30;99.90;;;;;;5036387;28;20126;-82
2023/05/25 08:02:55;;;;;;;18.45;2.78;;;14.40;99.90;;;;;;5035312;28;20036;-83
2023/05/25 08:05:21;;;;;;;16.13;2.88;;;14.50;99.90;;;;;;5052892;28;20538;-82
2023/05/25 08:07:46;;;;;;;10.65;2.72;;;14.70;99.90;;;;;;5035471;28;20060;-80
2023/05/25 08:10:12;;;;;;;12.15;2.47;;;14.70;99.90;;;;;;5069442;28;20442;-82
2023/05/25 08:12:38;;;;;;;9.25;1.92;;;15.20;99.90;;;;;;5035039;28;20112;-80
2023/05/25 08:15:05;;;;;;;11.50;2.55;;;15.40;99.90;;;;;;5052384;28;20040;-81
2023/05/25 08:17:30;;;;;;;15.25;3.00;;;15.50;99.90;;;;;;5051924;28;20040;-81
2023/05/25 08:19:56;;;;;;;13.77;2.70;;;15.50;99.90;;;;;;5068197;28;20117;-81
2023/05/25 08:22:22;;;;;;;18.38;2.67;;;15.30;99.90;;;;;;5068711;28;20036;-80
2023/05/25 08:24:48;;;;;;;13.55;2.20;;;15.20;99.90;;;;;;5034516;28;20070;-81
2023/05/25 08:27:13;;;;;;;12.98;2.80;;;15.20;99.90;;;;;;5052151;28;20040;-80
2023/05/25 08:29:39;;;;;;;19.27;2.88;;;15.20;99.90;;;;;;5035242;28;20032;-80
2023/05/25 08:32:05;;;;;;;14.52;2.08;;;15.20;99.90;;;;;;5051559;28;20451;-80
2023/05/25 08:34:31;;;;;;;18.25;2.15;;;15.20;99.90;;;;;;5067886;28;20067;-80
2023/05/25 08:36:57;;;;;;;14.15;2.65;;;15.40;99.90;;;;;;5068141;28;20044;-80
2023/05/25 08:39:22;;;;;;;9.73;2.50;;;15.50;99.90;;;;;;5051916;28;20044;-80
2023/05/25 08:41:50;;;;;;;9.80;2.78;;;15.70;99.90;;;;;;5067664;28;20086;-81
2023/05/25 08:44:16;;;;;;;12.90;3.30;;;15.80;99.90;;;;;;5068301;28;20048;-81
2023/05/25 08:46:42;;;;;;;11.32;2.72;;;16.00;99.90;;;;;;5067117;28;20402;-80
2023/05/25 08:49:13;;;;;;;19.05;3.28;;;16.30;99.90;;;;;;5067683;28;20112;-80
2023/05/25 08:51:46;;;;;;;13.52;3.45;;;16.50;99.90;;;;;;5050888;28;20472;-80
2023/05/25 08:54:12;;;;;;;15.77;2.70;;;16.70;99.90;;;;;;5068388;28;20047;-80
2023/05/25 08:57:03;;;;;;;14.20;2.88;;;16.80;99.90;;;;;;5068176;28;20044;-79
2023/05/25 08:59:59;;;;;;;19.13;3.65;;;16.70;99.90;;;;;;5050150;28;20040;-80
2023/05/25 09:02:37;;;;;;;10.25;2.55;;;16.20;99.90;;;;;;5068180;28;20048;-80
2023/05/25 09:05:04;;;;;;;9.40;1.85;;;15.60;99.90;;;;;;5068118;28;20062;-80
2023/05/25 09:07:31;;;;;;;11.93;1.90;;;15.50;99.90;;;;;;5066720;28;20047;-80
2023/05/25 09:09:57;;;;;;;14.55;2.92;;;15.60;99.90;;;;;;5050906;28;20047;-80
2023/05/25 09:12:23;;;;;;;13.35;2.03;;;15.80;99.90;;;;;;5050154;28;20040;-79
2023/05/25 09:14:49;;;;;;;10.98;2.58;;;15.90;99.90;;;;;;5017887;28;20097;-79
2023/05/25 09:17:17;;;;;;;12.55;2.33;;;15.80;99.90;;;;;;5067377;28;20109;-79
2023/05/25 09:19:43;;;;;;;15.02;2.30;;;15.70;99.90;;;;;;5067848;28;20044;-80
2023/05/25 09:22:10;;;;;;;14.52;2.85;;;15.70;99.90;;;;;;5067520;28;20044;-80
2023/05/25 09:24:36;;;;;;;11.88;2.35;;;15.60;99.90;;;;;;5066512;28;20044;-83
2023/05/25 09:27:05;;;;;;;16.42;2.53;;;15.40;99.90;;;;;;5034440;28;20102;-80
2023/05/25 09:29:31;;;;;;;12.82;2.92;;;15.40;99.90;;;;;;5050416;28;20128;-80
2023/05/25 09:31:57;;;;;;;10.75;1.98;;;15.50;99.90;;;;;;5050703;28;20052;-80
2023/05/25 09:34:23;;;;;;;9.73;2.08;;;15.60;99.90;;;;;;5066626;28;20047;-80
2023/05/25 09:36:49;;;;;;;13.90;2.63;;;15.90;99.90;;;;;;5067495;28;20055;-80
2023/05/25 09:39:15;;;;;;;14.77;2.72;;;16.00;99.90;;;;;;5067456;28;20502;-80
2023/05/25 09:41:42;;;;;;;15.27;3.00;;;16.20;99.90;;;;;;5033572;28;20593;-81
2023/05/25 09:44:07;;;;;;;16.08;2.83;;;16.30;99.90;;;;;;5067695;28;20040;-80
2023/05/25 09:46:36;;;;;;;18.02;4.57;;;16.40;99.90;;;;;;5049948;28;20387;-81
2023/05/25 09:49:07;;;;;;;13.05;2.92;;;16.50;99.90;;;;;;5034140;28;20040;-81
2023/05/25 09:51:34;;;;;;;14.70;2.85;;;16.40;99.90;;;;;;5049652;28;20063;-81
2023/05/25 09:54:00;;;;;;;15.05;2.45;;;16.20;99.90;;;;;;5033910;28;20524;-81
2023/05/25 09:56:32;;;;;;;15.88;3.53;;;16.10;99.90;;;;;;5049716;28;20154;-80
2023/05/25 09:58:58;;;;;;;13.47;2.07;;;15.80;99.90;;;;;;5065809;28;20058;-80
2023/05/25 10:01:24;;;;;;;13.05;2.60;;;15.60;99.90;;;;;;5066952;28;20289;-81
2023/05/25 10:03:50;;;;;;;18.73;2.95;;;15.70;99.90;;;;;;5049611;28;20040;-80
2023/05/25 10:06:16;;;;;;;15.82;3.78;;;15.80;99.90;;;;;;5067243;28;20364;-81
2023/05/25 10:08:48;;;;;;;22.75;4.35;;;15.70;99.90;;;;;;5049385;28;20479;-81
2023/05/25 10:11:15;;;;;;;13.07;2.85;;;15.70;99.90;;;;;;5049540;28;20051;-81
2023/05/25 10:13:45;;;;;;;16.20;3.20;;;15.90;99.90;;;;;;5050350;28;20046;-81
2023/05/25 10:16:18;;;;;;;16.33;2.88;;;15.90;99.90;;;;;;5066529;28;20090;-80
2023/05/25 10:18:50;;;;;;;17.98;2.92;;;15.70;99.90;;;;;;5066825;28;20041;-80
2023/05/25 10:21:18;;;;;;;14.95;2.40;;;15.50;99.90;;;;;;5033224;28;20044;-80
2023/05/25 10:23:46;;;;;;;21.88;3.00;;;15.60;99.90;;;;;;5066392;28;20036;-81
2023/05/25 10:26:20;;;;;;;12.70;2.88;;;15.60;99.90;;;;;;5066296;28;20055;-81
2023/05/25 10:28:50;;;;;;;14.52;3.50;;;15.70;99.90;;;;;;5048797;28;20563;-82
2023/05/25 10:31:16;;;;;;;14.43;2.08;;;15.70;99.90;;;;;;5067043;28;20475;-83
2023/05/25 10:33:44;;;;;;;18.05;2.60;;;15.50;99.90;;;;;;5032646;28;20032;-82
2023/05/25 10:36:12;;;;;;;10.30;2.10;;;15.40;99.90;;;;;;5033568;28;20503;-82
2023/05/25 10:38:43;;;;;;;15.60;2.55;;;15.30;99.90;;;;;;5066070;28;20040;-83
2023/05/25 10:41:10;;;;;;;14.43;2.13;;;15.20;99.90;;;;;;5033868;28;20504;-83
2023/05/25 10:43:39;;;;;;;14.32;3.22;;;15.40;99.90;;;;;;5050420;28;20054;-81
2023/05/25 10:46:06;;;;;;;19.45;3.20;;;15.70;99.90;;;;;;5049934;28;20043;-83
2023/05/25 10:48:39;;;;;;;15.00;2.45;;;16.00;99.90;;;;;;5069685;28;20051;-83
2023/05/25 10:51:06;;;;;;;10.95;2.40;;;16.20;99.90;;;;;;5069477;28;20054;-82
2023/05/25 10:53:37;;;;;;;15.55;3.63;;;16.30;99.90;;;;;;5069065;28;20059;-81
2023/05/25 10:56:05;;;;;;;10.30;2.30;;;16.50;99.90;;;;;;5067506;28;20048;-82
2023/05/25 10:58:32;;;;;;;13.25;2.75;;;16.50;99.90;;;;;;5067081;28;20507;-81
2023/05/25 11:01:01;;;;;;;12.88;2.97;;;16.50;99.90;;;;;;5067880;28;20044;-81
2023/05/25 11:04:00;;;;;;;17.38;2.85;;;16.30;99.90;;;;;;5066031;28;20047;-81
2023/05/25 11:06:44;;;;;;;9.93;2.38;;;16.30;99.90;;;;;;5067093;28;20056;-81
2023/05/25 11:09:24;;;;;;;18.40;1.95;;;16.30;99.90;;;;;;5069634;28;20054;-81
2023/05/25 11:11:51;;;;;;;15.38;2.60;;;16.50;99.90;;;;;;5035861;28;20036;-81
2023/05/25 11:14:30;;;;;;;11.57;2.28;;;16.80;99.90;;;;;;5054044;28;20138;-81
2023/05/25 11:17:18;;;;;;;11.45;2.58;;;16.90;99.90;;;;;;5036537;28;20145;-81
2023/05/25 11:19:49;;;;;;;9.27;2.40;;;17.10;99.90;;;;;;5053618;28;20429;-81
2023/05/25 11:22:20;;;;;;;11.30;2.08;;;17.20;99.90;;;;;;5070644;28;20051;-81
2023/05/25 11:24:50;;;;;;;8.75;2.15;;;17.00;99.90;;;;;;5035944;28;20127;-81
2023/05/25 11:27:23;;;;;;;11.88;2.10;;;16.80;99.90;;;;;;5070199;28;20097;-81
2023/05/25 11:29:50;;;;;;;13.18;2.30;;;16.60;99.90;;;;;;5069159;28;20093;-81
2023/05/25 11:32:16;;;;;;;18.63;2.67;;;16.50;99.90;;;;;;5037224;28;20087;-81
2023/05/25 11:34:45;;;;;;;19.42;2.53;;;16.40;99.90;;;;;;5052642;28;20463;-80
2023/05/25 11:37:12;;;;;;;16.27;2.35;;;16.50;99.90;;;;;;5053619;28;20075;-81
2023/05/25 11:39:38;;;;;;;11.73;2.25;;;16.40;99.90;;;;;;5037143;28;20036;-81
2023/05/25 11:42:09;;;;;;;18.52;3.58;;;16.30;99.90;;;;;;5052299;28;20514;-80
2023/05/25 11:44:36;;;;;;;18.50;2.28;;;16.40;99.90;;;;;;5069681;28;20123;-79
2023/05/25 11:47:13;;;;;;;12.27;2.25;;;16.40;99.90;;;;;;5068890;28;20535;-79
2023/05/25 11:49:46;;;;;;;13.02;2.08;;;16.30;99.90;;;;;;5052482;28;20080;-80
2023/05/25 11:52:23;;;;;;;22.35;3.28;;;16.40;99.90;;;;;;5036644;28;20495;-81
2023/05/25 11:54:49;;;;;;;12.15;2.60;;;16.50;99.90;;;;;;5035424;28;20043;-81
2023/05/25 11:57:23;;;;;;;12.35;2.35;;;16.60;99.90;;;;;;5069462;28;20112;-81
2023/05/25 11:59:53;;;;;;;10.35;2.75;;;16.50;99.90;;;;;;5068570;28;20044;-81
2023/05/25 12:02:20;;;;;;;12.77;2.55;;;16.50;99.90;;;;;;5069232;28;20514;-82
2023/05/25 12:05:00;;;;;;;15.43;3.63;;;16.70;99.90;;;;;;5068386;28;20487;-81
2023/05/25 12:07:27;;;;;;;15.18;2.78;;;16.80;99.90;;;;;;5052152;28;20170;-82
2023/05/25 12:10:05;;;;;;;10.93;2.60;;;16.90;99.90;;;;;;5069558;28;20131;-81
2023/05/25 12:12:41;;;;;;;17.23;3.50;;;16.90;99.90;;;;;;5068164;28;20054;-82
2023/05/25 12:15:09;;;;;;;16.45;3.20;;;16.80;99.90;;;;;;5068874;28;20131;-81
2023/05/25 12:17:35;;;;;;;13.75;3.00;;;16.80;99.90;;;;;;5068897;28;20070;-81
2023/05/25 12:20:03;;;;;;;15.18;2.60;;;16.80;99.90;;;;;;5051734;28;20487;-81
2023/05/25 12:22:28;;;;;;;11.75;2.30;;;16.90;99.90;;;;;;5035666;28;20043;-81
2023/05/25 12:24:54;;;;;;;13.77;2.35;;;16.70;99.90;;;;;;5034247;28;20048;-81
2023/05/25 12:27:23;;;;;;;13.77;2.70;;;16.70;99.90;;;;;;5052386;28;20101;-80
2023/05/25 12:29:49;;;;;;;13.25;3.30;;;16.90;99.90;;;;;;5034735;28;20032;-81
2023/05/25 12:32:15;;;;;;;15.00;2.58;;;17.00;99.90;;;;;;5051944;28;20047;-82
2023/05/25 12:34:40;;;;;;;17.58;3.15;;;17.30;99.90;;;;;;5051647;28;20040;-82
2023/05/25 12:37:18;;;;;;;12.43;3.00;;;17.70;99.90;;;;;;5068276;28;20430;-81
2023/05/25 12:39:44;;;;;;;11.23;2.20;;;17.80;99.90;;;;;;5052030;28;20233;-81
2023/05/25 12:42:15;;;;;;;16.10;4.10;;;17.60;99.90;;;;;;5067186;28;20303;-81
2023/05/25 12:44:41;;;;;;;13.30;2.92;;;17.30;99.90;;;;;;5068387;28;20054;-82